createdAt,value
2019-01-10T00:00:54.358Z,45.30
2019-01-10T00:01:59.341Z,43.87
2019-01-10T00:03:04.560Z,44.15
2019-01-10T00:04:09.513Z,43.80
2019-01-10T00:05:14.845Z,43.40
2019-01-10T00:06:19.845Z,45.78
2019-01-10T00:07:25.023Z,46.45
2019-01-10T00:08:29.875Z,47.95
2019-01-10T00:09:34.703Z,42.03
2019-01-10T00:10:39.756Z,45.12
2019-01-10T00:11:44.635Z,42.55
2019-01-10T00:12:49.643Z,40.05
2019-01-10T00:13:54.713Z,38.53
2019-01-10T00:14:59.734Z,38.10
2019-01-10T00:16:04.684Z,41.37
2019-01-10T00:17:09.568Z,40.48
2019-01-10T00:18:14.661Z,42.33
2019-01-10T00:19:19.464Z,38.55
2019-01-10T00:20:24.465Z,37.45
2019-01-10T00:21:29.348Z,38.23
2019-01-10T00:22:34.227Z,37.23
2019-01-10T00:23:39.078Z,39.85
2019-01-10T00:24:43.961Z,38.23
2019-01-10T00:25:48.908Z,36.35
2019-01-10T00:26:53.899Z,39.30
2019-01-10T00:27:58.920Z,39.73
2019-01-10T00:29:03.720Z,38.63
2019-01-10T00:30:15.281Z,38.58
2019-01-10T00:31:20.106Z,36.25
2019-01-10T00:32:24.985Z,35.65
2019-01-10T00:33:29.797Z,37.80
2019-01-10T00:34:34.717Z,42.62
2019-01-10T00:35:39.680Z,41.45
2019-01-10T00:36:44.529Z,37.80
2019-01-10T00:37:49.456Z,39.58
2019-01-10T00:38:54.455Z,40.78
2019-01-10T00:39:59.252Z,37.90
2019-01-10T00:41:04.380Z,39.73
2019-01-10T00:42:09.269Z,39.30
2019-01-10T00:43:14.189Z,33.73
2019-01-10T00:44:19.264Z,34.03
2019-01-10T00:45:24.334Z,34.00
2019-01-10T00:46:29.167Z,36.33
2019-01-10T00:47:34.211Z,36.75
2019-01-10T00:48:39.123Z,32.73
2019-01-10T00:49:43.935Z,31.12
2019-01-10T00:50:48.846Z,33.65
2019-01-10T00:51:53.883Z,32.17
2019-01-10T00:52:58.912Z,30.85
2019-01-10T00:54:04.280Z,29.95
2019-01-10T00:55:09.249Z,33.02
2019-01-10T00:56:14.070Z,32.58
2019-01-10T00:57:19.014Z,29.77
2019-01-10T00:58:23.792Z,31.82
2019-01-10T00:59:28.609Z,32.58
2019-01-10T01:00:33.817Z,31.33
2019-01-10T01:01:38.635Z,28.85
2019-01-10T01:02:43.685Z,36.10
2019-01-10T01:03:48.688Z,33.88
2019-01-10T01:04:53.604Z,35.13
2019-01-10T01:05:58.520Z,30.37
2019-01-10T01:07:03.545Z,31.33
2019-01-10T01:08:08.645Z,28.25
2019-01-10T01:09:13.420Z,30.32
2019-01-10T01:10:20.599Z,32.48
2019-01-10T01:11:25.456Z,30.48
2019-01-10T01:12:30.597Z,35.08
2019-01-10T01:13:35.477Z,27.35
2019-01-10T01:14:40.243Z,30.00
2019-01-10T01:15:45.249Z,26.40
2019-01-10T01:16:50.219Z,29.45
2019-01-10T01:17:54.992Z,31.42
2019-01-10T01:18:59.824Z,31.57
2019-01-10T01:20:05.818Z,31.57
2019-01-10T01:21:10.656Z,29.23
2019-01-10T01:22:15.664Z,29.80
2019-01-10T01:23:20.600Z,30.52
2019-01-10T01:24:25.491Z,29.32
2019-01-10T01:25:30.479Z,29.82
2019-01-10T01:26:35.240Z,28.35
2019-01-10T01:27:40.186Z,34.45
2019-01-10T01:28:45.198Z,32.63
2019-01-10T01:29:50.053Z,31.52
2019-01-10T01:30:54.807Z,30.77
2019-01-10T01:31:59.677Z,32.38
2019-01-10T01:33:05.018Z,38.38
2019-01-10T01:34:09.756Z,33.60
2019-01-10T01:35:16.133Z,34.48
2019-01-10T01:36:20.913Z,36.13
2019-01-10T01:37:26.980Z,31.37
2019-01-10T01:38:31.847Z,32.85
2019-01-10T01:39:36.657Z,33.65
2019-01-10T01:40:41.584Z,35.15
2019-01-10T01:41:46.460Z,29.55
2019-01-10T01:42:51.380Z,34.25
2019-01-10T01:43:56.148Z,31.65
2019-01-10T01:45:01.024Z,30.70
2019-01-10T01:46:07.785Z,32.78
2019-01-10T01:47:12.645Z,31.95
2019-01-10T01:48:17.530Z,32.98
2019-01-10T01:49:22.327Z,32.85
2019-01-10T01:50:27.483Z,35.80
2019-01-10T01:51:32.420Z,34.08
2019-01-10T01:52:37.298Z,33.67
2019-01-10T01:53:42.373Z,36.45
2019-01-10T01:54:47.267Z,31.57
2019-01-10T01:55:52.121Z,35.80
2019-01-10T01:56:56.996Z,31.65
2019-01-10T01:58:01.900Z,33.00
2019-01-10T01:59:06.857Z,33.15
2019-01-10T02:00:14.530Z,33.63
2019-01-10T02:01:19.364Z,33.98
2019-01-10T02:02:24.296Z,33.63
2019-01-10T02:03:29.266Z,31.35
2019-01-10T02:04:34.077Z,30.65
2019-01-10T02:05:39.029Z,32.48
2019-01-10T02:06:43.936Z,36.10
2019-01-10T02:07:49.295Z,36.08
2019-01-10T02:08:54.062Z,35.08
2019-01-10T02:09:59.161Z,34.45
2019-01-10T02:11:03.927Z,32.00
2019-01-10T02:12:09.291Z,36.83
2019-01-10T02:13:16.945Z,32.28
2019-01-10T02:14:20.880Z,32.45
2019-01-10T02:15:26.001Z,31.82
2019-01-10T02:16:30.792Z,30.37
2019-01-10T02:17:35.752Z,34.35
2019-01-10T02:18:40.668Z,35.73
2019-01-10T02:19:45.516Z,36.00
2019-01-10T02:20:50.566Z,34.10
2019-01-10T02:21:55.669Z,35.50
2019-01-10T02:23:00.506Z,36.03
2019-01-10T02:24:05.703Z,32.35
2019-01-10T02:25:11.089Z,33.25
2019-01-10T02:26:15.852Z,36.08
2019-01-10T02:27:20.813Z,33.30
2019-01-10T02:28:25.881Z,33.10
2019-01-10T02:29:30.762Z,34.27
2019-01-10T02:30:41.806Z,35.85
2019-01-10T02:31:42.192Z,33.33
2019-01-10T02:32:47.073Z,38.58
2019-01-10T02:33:52.113Z,32.78
2019-01-10T02:34:57.145Z,33.50
2019-01-10T02:36:05.304Z,34.18
2019-01-10T02:37:10.186Z,35.35
2019-01-10T02:38:15.056Z,35.45
2019-01-10T02:39:20.000Z,34.73
2019-01-10T02:40:24.806Z,33.90
2019-01-10T02:41:29.679Z,30.72
2019-01-10T02:42:34.558Z,36.90
2019-01-10T02:43:39.567Z,35.20
2019-01-10T02:44:44.342Z,35.48
2019-01-10T02:45:49.214Z,36.42
2019-01-10T02:46:53.984Z,33.42
2019-01-10T02:47:58.784Z,31.40
2019-01-10T02:49:03.677Z,33.73
2019-01-10T02:50:11.247Z,38.17
2019-01-10T02:51:16.107Z,36.95
2019-01-10T02:52:20.936Z,33.42
2019-01-10T02:53:25.747Z,36.13
2019-01-10T02:54:30.600Z,35.33
2019-01-10T02:55:35.461Z,28.95
2019-01-10T02:56:40.196Z,29.00
2019-01-10T02:57:45.246Z,32.78
2019-01-10T02:58:50.108Z,30.55
2019-01-10T02:59:54.904Z,30.55
2019-01-10T03:00:59.770Z,30.57
2019-01-10T03:02:05.125Z,31.05
2019-01-10T03:03:09.909Z,30.82
2019-01-10T03:04:14.855Z,27.60
2019-01-10T03:05:20.460Z,30.45
2019-01-10T03:06:25.223Z,30.95
2019-01-10T03:07:30.160Z,32.33
2019-01-10T03:08:35.060Z,28.27
2019-01-10T03:09:39.784Z,25.85
2019-01-10T03:10:44.690Z,29.12
2019-01-10T03:11:49.589Z,27.45
2019-01-10T03:12:54.395Z,28.38
2019-01-10T03:13:59.441Z,29.25
2019-01-10T03:15:04.700Z,29.18
2019-01-10T03:16:09.444Z,28.42
2019-01-10T03:17:14.428Z,30.37
2019-01-10T03:18:19.344Z,31.95
2019-01-10T03:19:24.166Z,31.85
2019-01-10T03:20:29.171Z,27.60
2019-01-10T03:21:34.127Z,27.15
2019-01-10T03:22:38.958Z,29.70
2019-01-10T03:23:43.862Z,30.82
2019-01-10T03:24:48.718Z,32.58
2019-01-10T03:25:53.465Z,29.35
2019-01-10T03:26:58.320Z,31.25
2019-01-10T03:28:03.275Z,29.15
2019-01-10T03:29:08.025Z,27.25
2019-01-10T03:30:14.796Z,27.13
2019-01-10T03:31:19.546Z,28.30
2019-01-10T03:32:24.412Z,25.92
2019-01-10T03:33:29.452Z,27.40
2019-01-10T03:34:34.355Z,27.98
2019-01-10T03:35:39.243Z,27.22
2019-01-10T03:36:44.153Z,27.17
2019-01-10T03:37:48.888Z,29.27
2019-01-10T03:38:53.777Z,27.93
2019-01-10T03:39:58.616Z,27.13
2019-01-10T03:41:03.408Z,27.48
2019-01-10T03:42:08.157Z,28.00
2019-01-10T03:43:13.095Z,24.02
2019-01-10T03:44:17.892Z,25.95
2019-01-10T03:45:23.581Z,25.43
2019-01-10T03:46:28.513Z,24.35
2019-01-10T03:47:33.332Z,25.00
2019-01-10T03:48:38.084Z,25.95
2019-01-10T03:49:43.032Z,26.82
2019-01-10T03:50:47.783Z,23.62
2019-01-10T03:51:52.720Z,26.33
2019-01-10T03:52:57.594Z,24.15
2019-01-10T03:54:02.380Z,24.60
2019-01-10T03:55:07.391Z,26.42
2019-01-10T03:56:12.250Z,25.37
2019-01-10T03:57:17.009Z,24.55
2019-01-10T03:58:21.989Z,31.23
2019-01-10T03:59:26.869Z,23.75
2019-01-10T04:00:31.595Z,24.70
2019-01-10T04:01:36.436Z,28.83
2019-01-10T04:02:41.412Z,24.85
2019-01-10T04:03:46.187Z,28.07
2019-01-10T04:04:51.112Z,25.02
2019-01-10T04:05:55.985Z,21.93
2019-01-10T04:07:00.772Z,26.60
2019-01-10T04:08:05.784Z,22.95
2019-01-10T04:09:10.942Z,25.72
2019-01-10T04:10:15.916Z,23.90
2019-01-10T04:11:20.884Z,24.57
2019-01-10T04:12:25.783Z,26.40
2019-01-10T04:13:30.581Z,24.32
2019-01-10T04:14:35.576Z,22.80
2019-01-10T04:15:40.501Z,22.20
2019-01-10T04:16:45.287Z,22.07
2019-01-10T04:17:50.155Z,20.60
2019-01-10T04:18:55.365Z,21.95
2019-01-10T04:20:00.135Z,18.02
2019-01-10T04:21:05.321Z,20.72
2019-01-10T04:22:10.168Z,20.17
2019-01-10T04:23:14.916Z,18.07
2019-01-10T04:24:19.832Z,21.62
2019-01-10T04:25:24.690Z,18.07
2019-01-10T04:26:29.429Z,18.10
2019-01-10T04:27:35.892Z,18.85
2019-01-10T04:28:40.724Z,18.62
2019-01-10T04:29:45.516Z,19.62
2019-01-10T04:30:50.424Z,19.60
2019-01-10T04:31:55.311Z,23.90
2019-01-10T04:33:00.292Z,21.23
2019-01-10T04:34:05.288Z,19.55
2019-01-10T04:35:10.345Z,21.20
2019-01-10T04:36:15.267Z,21.50
2019-01-10T04:37:20.055Z,22.35
2019-01-10T04:38:24.821Z,20.17
2019-01-10T04:39:29.832Z,21.10
2019-01-10T04:40:34.680Z,19.00
2019-01-10T04:41:39.669Z,20.90
2019-01-10T04:42:44.569Z,25.55
2019-01-10T04:43:49.564Z,33.13
2019-01-10T04:44:54.309Z,35.55
2019-01-10T04:45:59.269Z,32.63
2019-01-10T04:47:04.195Z,24.98
2019-01-10T04:48:09.056Z,24.92
2019-01-10T04:49:13.937Z,25.37
2019-01-10T04:50:18.867Z,23.32
2019-01-10T04:51:23.604Z,24.43
2019-01-10T04:52:28.584Z,23.18
2019-01-10T04:53:33.496Z,27.70
2019-01-10T04:54:38.608Z,26.50
2019-01-10T04:55:43.669Z,26.70
2019-01-10T04:56:48.425Z,27.40
2019-01-10T04:57:53.272Z,24.02
2019-01-10T04:58:58.401Z,25.15
2019-01-10T05:00:03.258Z,25.15
2019-01-10T05:01:08.025Z,27.25
2019-01-10T05:02:18.303Z,25.37
2019-01-10T05:03:19.378Z,25.17
2019-01-10T05:04:24.131Z,28.67
2019-01-10T05:05:29.046Z,28.00
2019-01-10T05:06:33.997Z,26.25
2019-01-10T05:07:38.744Z,25.72
2019-01-10T05:08:43.602Z,24.67
2019-01-10T05:09:48.661Z,26.62
2019-01-10T05:10:53.435Z,22.85
2019-01-10T05:11:58.320Z,24.87
2019-01-10T05:13:03.365Z,25.75
2019-01-10T05:14:16.141Z,28.05
2019-01-10T05:15:14.956Z,29.18
2019-01-10T05:16:19.927Z,27.90
2019-01-10T05:17:24.885Z,27.00
2019-01-10T05:18:29.804Z,24.07
2019-01-10T05:19:34.855Z,34.38
2019-01-10T05:20:39.947Z,37.35
2019-01-10T05:21:44.636Z,32.20
2019-01-10T05:22:49.952Z,24.63
2019-01-10T05:23:54.946Z,24.30
2019-01-10T05:24:59.965Z,28.20
2019-01-10T05:26:04.734Z,26.33
2019-01-10T05:27:09.621Z,26.02
2019-01-10T05:28:14.701Z,27.42
2019-01-10T05:29:19.591Z,25.52
2019-01-10T05:30:25.556Z,27.27
2019-01-10T05:31:30.584Z,24.25
2019-01-10T05:32:35.356Z,26.95
2019-01-10T05:33:40.262Z,26.97
2019-01-10T05:34:45.217Z,31.73
2019-01-10T05:35:50.423Z,27.52
2019-01-10T05:36:55.549Z,30.52
2019-01-10T05:38:00.509Z,26.35
2019-01-10T05:39:08.524Z,28.42
2019-01-10T05:40:13.648Z,27.42
2019-01-10T05:41:18.638Z,28.75
2019-01-10T05:42:23.571Z,26.33
2019-01-10T05:43:28.753Z,28.27
2019-01-10T05:44:33.897Z,30.23
2019-01-10T05:45:38.975Z,27.15
2019-01-10T05:46:48.560Z,29.15
2019-01-10T05:47:50.441Z,28.38
2019-01-10T05:48:55.574Z,32.05
2019-01-10T05:50:00.598Z,34.13
2019-01-10T05:51:05.672Z,31.33
2019-01-10T05:52:10.501Z,27.05
2019-01-10T05:53:15.400Z,29.20
2019-01-10T05:54:20.698Z,29.25
2019-01-10T05:55:25.992Z,26.52
2019-01-10T05:56:30.984Z,26.05
2019-01-10T05:57:35.903Z,27.75
2019-01-10T05:58:40.904Z,30.17
2019-01-10T05:59:45.685Z,31.02
2019-01-10T06:00:50.818Z,31.27
2019-01-10T06:01:55.834Z,27.55
2019-01-10T06:03:01.024Z,31.27
2019-01-10T06:04:05.833Z,30.48
2019-01-10T06:05:11.105Z,29.12
2019-01-10T06:06:16.021Z,31.15
2019-01-10T06:07:21.188Z,31.80
2019-01-10T06:08:26.066Z,31.12
2019-01-10T06:09:30.893Z,30.55
2019-01-10T06:10:36.102Z,32.25
2019-01-10T06:11:41.061Z,28.87
2019-01-10T06:12:45.939Z,31.20
2019-01-10T06:13:50.697Z,29.15
2019-01-10T06:14:55.482Z,32.80
2019-01-10T06:16:00.437Z,32.83
2019-01-10T06:17:05.286Z,36.28
2019-01-10T06:18:10.211Z,33.02
2019-01-10T06:19:15.245Z,34.00
2019-01-10T06:20:20.608Z,29.37
2019-01-10T06:21:25.722Z,32.38
2019-01-10T06:22:30.854Z,31.45
2019-01-10T06:23:35.774Z,30.35
2019-01-10T06:24:41.866Z,30.75
2019-01-10T06:25:46.849Z,36.28
2019-01-10T06:26:52.143Z,32.42
2019-01-10T06:27:57.440Z,35.13
2019-01-10T06:29:02.534Z,34.55
2019-01-10T06:30:09.387Z,34.35
2019-01-10T06:31:14.280Z,34.15
2019-01-10T06:32:19.048Z,38.28
2019-01-10T06:33:24.141Z,33.20
2019-01-10T06:34:29.296Z,31.12
2019-01-10T06:35:34.317Z,32.53
2019-01-10T06:36:39.210Z,33.45
2019-01-10T06:37:44.344Z,33.70
2019-01-10T06:38:49.332Z,32.80
2019-01-10T06:39:54.340Z,29.82
2019-01-10T06:40:59.136Z,33.25
2019-01-10T06:42:04.195Z,33.85
2019-01-10T06:43:09.060Z,31.23
2019-01-10T06:44:14.017Z,32.45
2019-01-10T06:45:19.288Z,33.23
2019-01-10T06:46:24.312Z,32.28
2019-01-10T06:47:29.172Z,31.65
2019-01-10T06:48:34.112Z,34.35
2019-01-10T06:49:39.017Z,34.27
2019-01-10T06:50:44.021Z,34.90
2019-01-10T06:51:48.857Z,36.10
2019-01-10T06:52:53.793Z,31.50
2019-01-10T06:53:58.691Z,32.55
2019-01-10T06:55:03.628Z,30.55
2019-01-10T06:56:08.437Z,33.48
2019-01-10T06:57:13.265Z,36.93
2019-01-10T06:58:18.181Z,33.40
2019-01-10T06:59:23.205Z,32.73
2019-01-10T07:00:28.024Z,34.45
2019-01-10T07:01:33.116Z,35.17
2019-01-10T07:02:38.240Z,32.73
2019-01-10T07:03:43.174Z,34.50
2019-01-10T07:04:47.968Z,28.83
2019-01-10T07:05:52.760Z,32.63
2019-01-10T07:06:57.701Z,32.33
2019-01-10T07:08:02.464Z,30.70
2019-01-10T07:09:09.480Z,31.12
2019-01-10T07:10:17.868Z,29.72
2019-01-10T07:11:22.781Z,29.52
2019-01-10T07:12:27.514Z,29.98
2019-01-10T07:13:33.652Z,35.52
2019-01-10T07:14:38.664Z,32.80
2019-01-10T07:15:43.540Z,32.95
2019-01-10T07:16:53.471Z,30.10
2019-01-10T07:17:54.729Z,32.00
2019-01-10T07:18:59.727Z,30.12
2019-01-10T07:20:05.689Z,28.90
2019-01-10T07:21:10.587Z,30.23
2019-01-10T07:22:19.661Z,35.65
2019-01-10T07:23:24.740Z,34.48
2019-01-10T07:24:29.609Z,31.87
2019-01-10T07:25:34.536Z,33.75
2019-01-10T07:26:39.431Z,35.28
2019-01-10T07:27:44.350Z,35.88
2019-01-10T07:28:49.328Z,33.98
2019-01-10T07:29:59.618Z,32.98
2019-01-10T07:31:28.414Z,36.28
2019-01-10T07:32:33.309Z,32.10
2019-01-10T07:33:38.147Z,31.87
2019-01-10T07:34:42.917Z,34.40
2019-01-10T07:35:52.707Z,32.10
2019-01-10T07:36:57.902Z,31.93
2019-01-10T07:38:02.849Z,29.65
2019-01-10T07:39:09.696Z,32.05
2019-01-10T07:40:17.050Z,33.55
2019-01-10T07:41:21.809Z,32.67
2019-01-10T07:42:33.504Z,28.35
2019-01-10T07:43:38.312Z,31.02
2019-01-10T07:44:43.405Z,30.12
2019-01-10T07:45:48.314Z,31.62
2019-01-10T07:46:53.341Z,34.00
2019-01-10T07:47:58.464Z,32.10
2019-01-10T07:49:03.336Z,31.87
2019-01-10T07:50:08.376Z,33.48
2019-01-10T07:51:13.292Z,32.33
2019-01-10T07:52:19.784Z,39.23
2019-01-10T07:53:24.676Z,34.50
2019-01-10T07:54:29.525Z,32.75
2019-01-10T07:55:34.446Z,35.52
2019-01-10T07:56:39.379Z,35.15
2019-01-10T07:57:44.244Z,34.63
2019-01-10T07:58:49.213Z,34.58
2019-01-10T07:59:56.079Z,38.13
2019-01-10T08:01:00.520Z,37.08
2019-01-10T08:02:05.773Z,35.98
2019-01-10T08:03:10.812Z,39.53
2019-01-10T08:04:15.759Z,39.03
2019-01-10T08:05:20.736Z,40.65
2019-01-10T08:06:25.749Z,42.17
2019-01-10T08:07:30.824Z,39.10
2019-01-10T08:08:35.784Z,38.53
2019-01-10T08:09:40.552Z,37.48
2019-01-10T08:10:45.438Z,37.17
2019-01-10T08:11:50.347Z,38.45
2019-01-10T08:12:55.244Z,39.80
2019-01-10T08:14:00.144Z,36.80
2019-01-10T08:15:11.753Z,44.13
2019-01-10T08:16:12.170Z,34.88
2019-01-10T08:17:17.056Z,35.58
2019-01-10T08:18:22.015Z,34.43
2019-01-10T08:19:27.113Z,37.17
2019-01-10T08:20:31.984Z,37.88
2019-01-10T08:21:36.972Z,37.60
2019-01-10T08:22:42.029Z,40.17
2019-01-10T08:23:47.007Z,36.20
2019-01-10T08:24:51.859Z,38.45
2019-01-10T08:25:56.629Z,38.15
2019-01-10T08:27:01.487Z,38.75
2019-01-10T08:28:06.578Z,37.23
2019-01-10T08:29:11.461Z,34.78
2019-01-10T08:30:18.867Z,38.63
2019-01-10T08:31:23.728Z,40.35
2019-01-10T08:32:28.638Z,39.75
2019-01-10T08:33:33.745Z,32.70
2019-01-10T08:34:38.706Z,36.30
2019-01-10T08:35:43.712Z,34.08
2019-01-10T08:36:48.643Z,37.50
2019-01-10T08:37:53.585Z,33.50
2019-01-10T08:38:58.567Z,34.95
2019-01-10T08:40:03.593Z,35.05
2019-01-10T08:41:08.481Z,33.40
2019-01-10T08:42:13.535Z,34.40
2019-01-10T08:43:18.349Z,35.15
2019-01-10T08:44:23.425Z,35.25
2019-01-10T08:45:28.427Z,37.10
2019-01-10T08:46:33.407Z,37.88
2019-01-10T08:47:38.620Z,34.08
2019-01-10T08:48:43.659Z,31.70
2019-01-10T08:49:48.661Z,34.50
2019-01-10T08:50:53.742Z,32.63
2019-01-10T08:51:59.529Z,30.72
2019-01-10T08:53:05.235Z,33.10
2019-01-10T08:54:10.599Z,31.80
2019-01-10T08:55:15.910Z,33.70
2019-01-10T08:56:20.954Z,33.00
2019-01-10T08:57:26.314Z,35.45
2019-01-10T08:58:31.475Z,33.05
2019-01-10T08:59:36.566Z,34.48
2019-01-10T09:00:41.563Z,32.53
2019-01-10T09:01:46.771Z,30.70
2019-01-10T09:02:52.105Z,36.42
2019-01-10T09:03:57.242Z,36.10
2019-01-10T09:05:02.163Z,36.70
2019-01-10T09:06:08.173Z,32.28
2019-01-10T09:07:13.933Z,28.52
2019-01-10T09:08:19.044Z,32.35
2019-01-10T09:09:24.476Z,34.65
2019-01-10T09:10:35.146Z,33.65
2019-01-10T09:11:40.159Z,30.55
2019-01-10T09:12:45.390Z,32.35
2019-01-10T09:13:51.107Z,33.65
2019-01-10T09:14:59.091Z,30.57
2019-01-10T09:16:04.390Z,32.35
2019-01-10T09:17:11.563Z,32.88
2019-01-10T09:18:16.595Z,32.48
2019-01-10T09:19:21.689Z,36.28
2019-01-10T09:20:27.321Z,37.78
2019-01-10T09:21:33.272Z,37.85
2019-01-10T09:22:38.522Z,34.38
2019-01-10T09:23:43.415Z,35.08
2019-01-10T09:24:48.636Z,33.38
2019-01-10T09:25:53.949Z,34.58
2019-01-10T09:26:59.294Z,34.20
2019-01-10T09:28:05.045Z,33.48
2019-01-10T09:29:10.660Z,34.20
2019-01-10T09:30:18.516Z,33.18
2019-01-10T09:31:23.595Z,33.88
2019-01-10T09:32:28.731Z,32.75
2019-01-10T09:33:34.078Z,32.90
2019-01-10T09:34:39.459Z,34.45
2019-01-10T09:35:44.678Z,34.70
2019-01-10T09:36:50.018Z,36.33
2019-01-10T09:37:55.334Z,39.45
2019-01-10T09:39:00.294Z,36.05
2019-01-10T09:40:06.359Z,36.28
2019-01-10T09:41:12.235Z,38.48
2019-01-10T09:42:17.322Z,37.55
2019-01-10T09:43:23.096Z,34.92
2019-01-10T09:44:29.036Z,34.90
2019-01-10T09:45:42.836Z,34.05
2019-01-10T09:46:42.093Z,35.03
2019-01-10T09:47:48.023Z,33.98
2019-01-10T09:48:53.851Z,30.48
2019-01-10T09:50:00.629Z,27.87
2019-01-10T09:51:06.295Z,29.20
2019-01-10T09:52:12.044Z,29.40
2019-01-10T09:53:17.852Z,30.97
2019-01-10T09:54:22.960Z,35.28
2019-01-10T09:55:28.040Z,40.83
2019-01-10T09:56:33.216Z,37.93
2019-01-10T09:57:38.341Z,37.73
2019-01-10T09:58:43.359Z,35.03
2019-01-10T09:59:50.208Z,36.58
2019-01-10T10:00:55.200Z,38.70
2019-01-10T10:02:00.524Z,39.83
2019-01-10T10:03:05.716Z,36.13
2019-01-10T10:04:11.048Z,35.35
2019-01-10T10:05:16.421Z,36.50
2019-01-10T10:06:22.017Z,35.25
2019-01-10T10:07:27.012Z,37.73
2019-01-10T10:08:32.834Z,39.23
2019-01-10T10:09:38.737Z,40.78
2019-01-10T10:10:45.178Z,43.30
2019-01-10T10:11:50.217Z,40.90
2019-01-10T10:12:55.417Z,34.78
2019-01-10T10:14:01.080Z,37.42
2019-01-10T10:15:09.354Z,35.00
2019-01-10T10:16:14.430Z,36.40
2019-01-10T10:17:19.441Z,34.30
2019-01-10T10:18:24.940Z,33.78
2019-01-10T10:19:30.201Z,34.48
2019-01-10T10:20:35.438Z,39.88
2019-01-10T10:21:40.467Z,39.60
2019-01-10T10:22:45.457Z,36.17
2019-01-10T10:23:50.749Z,36.45
2019-01-10T10:24:55.964Z,34.13
2019-01-10T10:26:01.476Z,32.98
2019-01-10T10:27:06.721Z,37.03
2019-01-10T10:28:11.924Z,35.92
2019-01-10T10:29:17.661Z,35.35
2019-01-10T10:30:23.399Z,36.65
2019-01-10T10:31:28.572Z,39.65
2019-01-10T10:32:33.571Z,46.73
2019-01-10T10:33:38.550Z,45.48
2019-01-10T10:34:45.354Z,38.08
2019-01-10T10:35:51.188Z,39.70
2019-01-10T10:36:56.095Z,37.10
2019-01-10T10:38:01.815Z,33.45
2019-01-10T10:39:09.455Z,36.90
2019-01-10T10:40:16.852Z,37.65
2019-01-10T10:41:22.114Z,36.15
2019-01-10T10:42:27.595Z,37.35
2019-01-10T10:43:32.557Z,38.65
2019-01-10T10:44:37.492Z,38.23
2019-01-10T10:45:43.573Z,39.48
2019-01-10T10:46:49.335Z,40.85
2019-01-10T10:47:55.176Z,38.92
2019-01-10T10:49:01.213Z,37.25
2019-01-10T10:50:07.468Z,36.63
2019-01-10T10:51:12.642Z,40.10
2019-01-10T10:52:17.787Z,39.03
2019-01-10T10:53:23.595Z,33.95
2019-01-10T10:54:28.802Z,34.53
2019-01-10T10:55:33.876Z,33.80
2019-01-10T10:56:38.784Z,35.92
2019-01-10T10:57:44.275Z,32.88
2019-01-10T10:58:49.513Z,35.98
2019-01-10T10:59:54.378Z,32.93
2019-01-10T11:00:59.425Z,34.45
2019-01-10T11:02:04.466Z,34.25
2019-01-10T11:03:09.926Z,31.77
2019-01-10T11:04:15.284Z,33.45
2019-01-10T11:05:20.605Z,32.53
2019-01-10T11:06:25.521Z,35.23
2019-01-10T11:07:30.465Z,34.33
2019-01-10T11:08:35.666Z,37.13
2019-01-10T11:09:40.812Z,38.67
2019-01-10T11:10:46.570Z,39.75
2019-01-10T11:11:51.952Z,43.25
2019-01-10T11:12:57.135Z,39.73
2019-01-10T11:14:02.559Z,40.12
2019-01-10T11:15:09.125Z,35.03
2019-01-10T11:16:14.511Z,37.53
2019-01-10T11:17:20.298Z,35.20
2019-01-10T11:18:25.688Z,37.23
2019-01-10T11:19:30.805Z,37.58
2019-01-10T11:20:36.149Z,38.80
2019-01-10T11:21:44.245Z,38.67
2019-01-10T11:22:50.360Z,37.20
2019-01-10T11:23:55.725Z,36.93
2019-01-10T11:25:00.724Z,39.15
2019-01-10T11:26:06.907Z,37.58
2019-01-10T11:27:12.480Z,37.63
2019-01-10T11:28:17.756Z,38.48
2019-01-10T11:29:22.957Z,37.80
2019-01-10T11:30:28.261Z,37.15
2019-01-10T11:31:33.220Z,37.35
2019-01-10T11:32:38.471Z,38.17
2019-01-10T11:33:43.594Z,39.40
2019-01-10T11:34:49.295Z,35.33
2019-01-10T11:35:54.819Z,34.73
2019-01-10T11:37:00.705Z,34.05
2019-01-10T11:38:05.856Z,32.08
2019-01-10T11:39:11.179Z,36.00
2019-01-10T11:40:19.220Z,33.25
2019-01-10T11:41:24.879Z,35.13
2019-01-10T11:42:30.764Z,30.45
2019-01-10T11:43:36.403Z,33.18
2019-01-10T11:44:41.880Z,33.20
2019-01-10T11:45:47.570Z,31.35
2019-01-10T11:46:52.614Z,33.55
2019-01-10T11:47:58.036Z,30.60
2019-01-10T11:49:03.429Z,34.48
2019-01-10T11:50:09.655Z,35.25
2019-01-10T11:51:14.766Z,32.55
2019-01-10T11:52:21.130Z,33.58
2019-01-10T11:53:35.247Z,34.50
2019-01-10T11:54:33.233Z,32.45
2019-01-10T11:55:38.473Z,35.78
2019-01-10T11:56:43.655Z,31.90
2019-01-10T11:57:49.055Z,33.90
2019-01-10T11:58:54.517Z,35.05
2019-01-10T11:59:59.843Z,33.65
2019-01-10T12:01:05.326Z,32.88
2019-01-10T12:02:10.541Z,33.90
2019-01-10T12:03:15.563Z,33.65
2019-01-10T12:04:20.820Z,36.68
2019-01-10T12:05:26.096Z,35.88
2019-01-10T12:06:31.027Z,36.60
2019-01-10T12:07:35.931Z,34.53
2019-01-10T12:08:41.039Z,34.27
2019-01-10T12:09:46.175Z,37.03
2019-01-10T12:10:51.121Z,34.43
2019-01-10T12:11:56.471Z,33.40
2019-01-10T12:13:01.742Z,35.10
2019-01-10T12:14:06.888Z,36.63
2019-01-10T12:15:12.660Z,34.25
2019-01-10T12:16:17.855Z,31.90
2019-01-10T12:17:23.595Z,29.57
2019-01-10T12:18:29.564Z,33.13
2019-01-10T12:19:34.587Z,35.73
2019-01-10T12:20:40.197Z,36.83
2019-01-10T12:21:45.734Z,32.75
2019-01-10T12:22:51.436Z,33.67
2019-01-10T12:23:56.681Z,32.88
2019-01-10T12:25:01.693Z,35.85
2019-01-10T12:26:06.741Z,35.85
2019-01-10T12:27:11.976Z,41.92
2019-01-10T12:28:17.331Z,39.95
2019-01-10T12:29:22.321Z,39.25
2019-01-10T12:30:30.785Z,38.15
2019-01-10T12:31:35.994Z,42.78
2019-01-10T12:32:41.097Z,39.50
2019-01-10T12:33:49.034Z,41.68
2019-01-10T12:34:53.954Z,32.08
2019-01-10T12:35:58.914Z,33.78
2019-01-10T12:37:03.836Z,34.13
2019-01-10T12:38:09.085Z,35.90
2019-01-10T12:39:14.319Z,33.58
2019-01-10T12:40:19.336Z,40.03
2019-01-10T12:41:24.543Z,37.53
2019-01-10T12:42:29.770Z,39.50
2019-01-10T12:43:34.804Z,38.85
2019-01-10T12:44:39.898Z,38.78
2019-01-10T12:45:45.219Z,33.48
2019-01-10T12:46:51.007Z,37.40
2019-01-10T12:47:56.349Z,34.80
2019-01-10T12:49:01.478Z,36.48
2019-01-10T12:50:10.637Z,38.35
2019-01-10T12:51:15.824Z,47.20
2019-01-10T12:52:21.307Z,44.85
2019-01-10T12:53:27.095Z,46.48
2019-01-10T12:54:32.518Z,44.98
2019-01-10T12:55:38.414Z,40.55
2019-01-10T12:56:43.594Z,48.60
2019-01-10T12:57:48.679Z,46.53
2019-01-10T12:58:53.963Z,44.65
2019-01-10T12:59:59.329Z,39.42
2019-01-10T13:01:04.640Z,35.28
2019-01-10T13:02:11.349Z,37.58
2019-01-10T13:03:16.503Z,39.78
2019-01-10T13:04:21.703Z,40.75
2019-01-10T13:05:27.274Z,35.75
2019-01-10T13:06:33.004Z,39.60
2019-01-10T13:07:38.565Z,34.63
2019-01-10T13:08:43.937Z,36.75
2019-01-10T13:09:49.442Z,40.70
2019-01-10T13:10:55.136Z,39.15
2019-01-10T13:12:00.766Z,44.50
2019-01-10T13:13:06.250Z,43.45
2019-01-10T13:14:11.479Z,41.95
2019-01-10T13:15:25.406Z,39.95
2019-01-10T13:16:30.679Z,40.23
2019-01-10T13:17:35.908Z,42.38
2019-01-10T13:18:41.637Z,44.98
2019-01-10T13:19:46.704Z,44.63
2019-01-10T13:20:52.675Z,42.67
2019-01-10T13:21:59.491Z,40.75
2019-01-10T13:23:04.528Z,41.00
2019-01-10T13:24:10.034Z,44.98
2019-01-10T13:25:16.909Z,38.65
2019-01-10T13:26:22.044Z,41.77
2019-01-10T13:27:26.999Z,40.35
2019-01-10T13:28:32.968Z,40.33
2019-01-10T13:29:38.378Z,42.33
2019-01-10T13:30:43.835Z,44.03
2019-01-10T13:31:49.561Z,43.40
2019-01-10T13:32:55.464Z,44.35
2019-01-10T13:34:00.486Z,37.80
2019-01-10T13:35:06.901Z,37.88
2019-01-10T13:36:12.789Z,41.23
2019-01-10T13:37:18.568Z,46.98
2019-01-10T13:38:23.539Z,50.30
2019-01-10T13:39:28.964Z,63.17
2019-01-10T13:40:34.712Z,61.63
2019-01-10T13:41:39.740Z,64.92
2019-01-10T13:42:45.097Z,66.67
2019-01-10T13:43:50.429Z,58.87
2019-01-10T13:44:56.214Z,59.50
2019-01-10T13:46:01.178Z,58.00
2019-01-10T13:47:06.519Z,49.98
2019-01-10T13:48:11.866Z,43.52
2019-01-10T13:49:16.897Z,50.20
2019-01-10T13:50:25.121Z,53.13
2019-01-10T13:51:30.573Z,57.03
2019-01-10T13:52:36.334Z,65.00
2019-01-10T13:53:41.887Z,73.90
2019-01-10T13:54:47.783Z,78.02
2019-01-10T13:55:53.582Z,77.10
2019-01-10T13:56:59.072Z,71.45
2019-01-10T13:58:04.938Z,85.92
2019-01-10T14:00:21.974Z,77.82
2019-01-10T14:01:27.416Z,68.00
2019-01-10T14:02:33.164Z,70.52